sensor_id;sensor_type;location;lat;lon;timestamp;temperature;humidity
10875;DHT22;5490;52.200;8.786;2023-04-22T00:00:59;12.40;99.90
10875;DHT22;5490;52.200;8.786;2023-04-22T00:03:26;12.30;99.90
10875;DHT22;5490;52.200;8.786;2023-04-22T00:05:55;12.30;99.90
10875;DHT22;5490;52.200;8.786;2023-04-22T00:08:21;12.30;99.90
10875;DHT22;5490;52.200;8.786;2023-04-22T00:10:48;12.30;99.90
10875;DHT22;5490;52.200;8.786;2023-04-22T00:13:15;12.20;99.90
10875;DHT22;5490;52.200;8.786;2023-04-22T00:15:41;12.20;99.90
10875;DHT22;5490;52.200;8.786;2023-04-22T00:18:08;12.20;99.90
10875;DHT22;5490;52.200;8.786;2023-04-22T00:20:39;12.10;99.90
10875;DHT22;5490;52.200;8.786;2023-04-22T00:23:07;12.10;99.90
10875;DHT22;5490;52.200;8.786;2023-04-22T00:25:34;12.00;99.90
10875;DHT22;5490;52.200;8.786;2023-04-22T00:28:00;12.00;99.90
10875;DHT22;5490;52.200;8.786;2023-04-22T00:30:27;11.90;99.90
10875;DHT22;5490;52.200;8.786;2023-04-22T00:32:54;11.90;99.90
10875;DHT22;5490;52.200;8.786;2023-04-22T00:35:20;11.80;99.90
10875;DHT22;5490;52.200;8.786;2023-04-22T00:37:47;11.80;99.90
10875;DHT22;5490;52.200;8.786;2023-04-22T00:40:15;11.70;99.90
10875;DHT22;5490;52.200;8.786;2023-04-22T00:42:43;11.70;99.90
10875;DHT22;5490;52.200;8.786;2023-04-22T00:45:10;11.70;99.90
10875;DHT22;5490;52.200;8.786;2023-04-22T00:47:38;11.60;99.90
10875;DHT22;5490;52.200;8.786;2023-04-22T00:50:06;11.60;99.90
10875;DHT22;5490;52.200;8.786;2023-04-22T00:52:33;11.50;99.90
10875;DHT22;5490;52.200;8.786;2023-04-22T00:54:59;11.50;99.90
10875;DHT22;5490;52.200;8.786;2023-04-22T00:57:28;11.40;99.90
10875;DHT22;5490;52.200;8.786;2023-04-22T00:59:55;11.40;99.90
10875;DHT22;5490;52.200;8.786;2023-04-22T01:02:22;11.40;99.90
10875;DHT22;5490;52.200;8.786;2023-04-22T01:04:50;11.30;99.90
10875;DHT22;5490;52.200;8.786;2023-04-22T01:07:18;11.30;99.90
10875;DHT22;5490;52.200;8.786;2023-04-22T01:09:46;11.20;99.90
10875;DHT22;5490;52.200;8.786;2023-04-22T01:12:13;11.20;99.90
10875;DHT22;5490;52.200;8.786;2023-04-22T01:14:41;11.20;99.90
10875;DHT22;5490;52.200;8.786;2023-04-22T01:17:08;11.20;99.90
10875;DHT22;5490;52.200;8.786;2023-04-22T01:19:37;11.20;99.90
10875;DHT22;5490;52.200;8.786;2023-04-22T01:22:05;11.20;99.90
10875;DHT22;5490;52.200;8.786;2023-04-22T01:24:34;11.20;99.90
10875;DHT22;5490;52.200;8.786;2023-04-22T01:27:01;11.20;99.90
10875;DHT22;5490;52.200;8.786;2023-04-22T01:29:28;11.20;99.90
10875;DHT22;5490;52.200;8.786;2023-04-22T01:31:55;11.20;99.90
10875;DHT22;5490;52.200;8.786;2023-04-22T01:34:22;11.20;99.90
10875;DHT22;5490;52.200;8.786;2023-04-22T01:36:49;11.10;99.90
10875;DHT22;5490;52.200;8.786;2023-04-22T01:39:17;11.10;99.90
10875;DHT22;5490;52.200;8.786;2023-04-22T01:41:46;11.10;99.90
10875;DHT22;5490;52.200;8.786;2023-04-22T01:44:13;11.00;99.90
10875;DHT22;5490;52.200;8.786;2023-04-22T01:46:40;11.00;99.90
10875;DHT22;5490;52.200;8.786;2023-04-22T01:49:06;10.90;99.90
10875;DHT22;5490;52.200;8.786;2023-04-22T01:51:33;10.90;99.90
10875;DHT22;5490;52.200;8.786;2023-04-22T01:54:00;10.90;99.90
10875;DHT22;5490;52.200;8.786;2023-04-22T01:56:28;10.80;99.90
10875;DHT22;5490;52.200;8.786;2023-04-22T01:58:56;10.80;99.90
10875;DHT22;5490;52.200;8.786;2023-04-22T02:01:23;10.80;99.90
10875;DHT22;5490;52.200;8.786;2023-04-22T02:03:50;10.70;99.90
10875;DHT22;5490;52.200;8.786;2023-04-22T02:06:17;10.70;99.90
10875;DHT22;5490;52.200;8.786;2023-04-22T02:08:43;10.70;99.90
10875;DHT22;5490;52.200;8.786;2023-04-22T02:11:10;10.70;99.90
10875;DHT22;5490;52.200;8.786;2023-04-22T02:13:38;10.60;99.90
10875;DHT22;5490;52.200;8.786;2023-04-22T02:16:07;10.60;99.90
10875;DHT22;5490;52.200;8.786;2023-04-22T02:18:34;10.60;99.90
10875;DHT22;5490;52.200;8.786;2023-04-22T02:21:01;10.50;99.90
10875;DHT22;5490;52.200;8.786;2023-04-22T02:23:28;10.50;99.90
10875;DHT22;5490;52.200;8.786;2023-04-22T02:25:55;10.50;99.90
10875;DHT22;5490;52.200;8.786;2023-04-22T02:28:21;10.40;99.90
10875;DHT22;5490;52.200;8.786;2023-04-22T02:30:48;10.40;99.90
10875;DHT22;5490;52.200;8.786;2023-04-22T02:33:16;10.30;99.90
10875;DHT22;5490;52.200;8.786;2023-04-22T02:35:43;10.30;99.90
10875;DHT22;5490;52.200;8.786;2023-04-22T02:38:10;10.30;99.90
10875;DHT22;5490;52.200;8.786;2023-04-22T02:40:37;10.30;99.90
10875;DHT22;5490;52.200;8.786;2023-04-22T02:43:03;10.30;99.90
10875;DHT22;5490;52.200;8.786;2023-04-22T02:45:30;10.20;99.90
10875;DHT22;5490;52.200;8.786;2023-04-22T02:47:57;10.20;99.90
10875;DHT22;5490;52.200;8.786;2023-04-22T02:50:25;10.20;99.90
10875;DHT22;5490;52.200;8.786;2023-04-22T02:52:52;10.20;99.90
10875;DHT22;5490;52.200;8.786;2023-04-22T02:55:18;10.20;99.90
10875;DHT22;5490;52.200;8.786;2023-04-22T02:57:46;10.10;99.90
10875;DHT22;5490;52.200;8.786;2023-04-22T03:00:13;10.10;99.90
10875;DHT22;5490;52.200;8.786;2023-04-22T03:02:40;10.10;99.90
10875;DHT22;5490;52.200;8.786;2023-04-22T03:05:07;10.10;99.90
10875;DHT22;5490;52.200;8.786;2023-04-22T03:07:35;10.10;99.90
10875;DHT22;5490;52.200;8.786;2023-04-22T03:10:03;10.10;99.90
10875;DHT22;5490;52.200;8.786;2023-04-22T03:12:30;10.00;99.90
10875;DHT22;5490;52.200;8.786;2023-04-22T03:14:56;10.10;99.90
10875;DHT22;5490;52.200;8.786;2023-04-22T03:17:23;10.10;99.90
10875;DHT22;5490;52.200;8.786;2023-04-22T03:19:50;10.10;99.90
10875;DHT22;5490;52.200;8.786;2023-04-22T03:22:17;10.10;99.90
10875;DHT22;5490;52.200;8.786;2023-04-22T03:24:45;10.10;99.90
10875;DHT22;5490;52.200;8.786;2023-04-22T03:27:12;10.10;99.90
10875;DHT22;5490;52.200;8.786;2023-04-22T03:29:39;10.10;99.90
10875;DHT22;5490;52.200;8.786;2023-04-22T03:32:05;10.10;99.90
10875;DHT22;5490;52.200;8.786;2023-04-22T03:34:32;10.10;99.90
10875;DHT22;5490;52.200;8.786;2023-04-22T03:36:59;10.20;99.90
10875;DHT22;5490;52.200;8.786;2023-04-22T03:39:25;10.10;99.90
10875;DHT22;5490;52.200;8.786;2023-04-22T03:41:53;10.20;99.90
10875;DHT22;5490;52.200;8.786;2023-04-22T03:44:20;10.20;99.90
10875;DHT22;5490;52.200;8.786;2023-04-22T03:46:47;10.20;99.90
10875;DHT22;5490;52.200;8.786;2023-04-22T03:49:13;10.20;99.90
10875;DHT22;5490;52.200;8.786;2023-04-22T03:51:40;10.20;99.90
10875;DHT22;5490;52.200;8.786;2023-04-22T03:54:07;10.20;99.90
10875;DHT22;5490;52.200;8.786;2023-04-22T03:56:34;10.20;99.90
10875;DHT22;5490;52.200;8.786;2023-04-22T03:59:02;10.30;99.90
10875;DHT22;5490;52.200;8.786;2023-04-22T04:01:29;10.30;99.90
10875;DHT22;5490;52.200;8.786;2023-04-22T04:03:55;10.40;99.90
10875;DHT22;5490;52.200;8.786;2023-04-22T04:06:22;10.40;99.90
10875;DHT22;5490;52.200;8.786;2023-04-22T04:08:49;10.40;99.90
10875;DHT22;5490;52.200;8.786;2023-04-22T04:11:16;10.40;99.90
10875;DHT22;5490;52.200;8.786;2023-04-22T04:13:43;10.50;99.90
10875;DHT22;5490;52.200;8.786;2023-04-22T04:16:11;10.50;99.90
10875;DHT22;5490;52.200;8.786;2023-04-22T04:18:38;10.60;99.90
10875;DHT22;5490;52.200;8.786;2023-04-22T04:21:05;10.60;99.90
10875;DHT22;5490;52.200;8.786;2023-04-22T04:23:31;10.70;99.90
10875;DHT22;5490;52.200;8.786;2023-04-22T04:25:58;10.70;99.90
10875;DHT22;5490;52.200;8.786;2023-04-22T04:28:27;10.70;99.90
10875;DHT22;5490;52.200;8.786;2023-04-22T04:30:56;10.80;99.90
10875;DHT22;5490;52.200;8.786;2023-04-22T04:33:24;10.80;99.90
10875;DHT22;5490;52.200;8.786;2023-04-22T04:35:52;10.90;99.90
10875;DHT22;5490;52.200;8.786;2023-04-22T04:38:19;10.90;99.90
10875;DHT22;5490;52.200;8.786;2023-04-22T04:40:49;11.00;99.90
10875;DHT22;5490;52.200;8.786;2023-04-22T04:43:15;11.00;99.90
10875;DHT22;5490;52.200;8.786;2023-04-22T04:45:43;11.00;99.90
10875;DHT22;5490;52.200;8.786;2023-04-22T04:48:11;11.10;99.90
10875;DHT22;5490;52.200;8.786;2023-04-22T04:50:40;11.10;99.90
10875;DHT22;5490;52.200;8.786;2023-04-22T04:53:07;11.20;99.90
10875;DHT22;5490;52.200;8.786;2023-04-22T04:55:33;11.20;99.90
10875;DHT22;5490;52.200;8.786;2023-04-22T04:58:00;11.20;99.90
10875;DHT22;5490;52.200;8.786;2023-04-22T05:00:27;11.20;99.90
10875;DHT22;5490;52.200;8.786;2023-04-22T05:02:54;11.20;99.90
10875;DHT22;5490;52.200;8.786;2023-04-22T05:05:21;11.40;99.90
10875;DHT22;5490;52.200;8.786;2023-04-22T05:07:49;11.40;99.90
10875;DHT22;5490;52.200;8.786;2023-04-22T05:10:18;11.40;99.90
10875;DHT22;5490;52.200;8.786;2023-04-22T05:12:45;11.40;99.90
10875;DHT22;5490;52.200;8.786;2023-04-22T05:15:12;11.50;99.90
10875;DHT22;5490;52.200;8.786;2023-04-22T05:17:39;11.50;99.90
10875;DHT22;5490;52.200;8.786;2023-04-22T05:20:06;11.60;99.90
10875;DHT22;5490;52.200;8.786;2023-04-22T05:22:34;11.60;99.90
10875;DHT22;5490;52.200;8.786;2023-04-22T05:25:02;11.70;99.90
10875;DHT22;5490;52.200;8.786;2023-04-22T05:27:29;11.70;99.90
10875;DHT22;5490;52.200;8.786;2023-04-22T05:29:56;11.90;99.90
10875;DHT22;5490;52.200;8.786;2023-04-22T05:32:23;11.80;99.90
10875;DHT22;5490;52.200;8.786;2023-04-22T05:34:49;12.00;99.90
10875;DHT22;5490;52.200;8.786;2023-04-22T05:37:16;12.10;99.90
10875;DHT22;5490;52.200;8.786;2023-04-22T05:39:43;12.10;99.90
10875;DHT22;5490;52.200;8.786;2023-04-22T05:42:11;12.20;99.90
10875;DHT22;5490;52.200;8.786;2023-04-22T05:44:37;12.20;99.90
10875;DHT22;5490;52.200;8.786;2023-04-22T05:47:04;12.30;99.90
10875;DHT22;5490;52.200;8.786;2023-04-22T05:49:31;12.40;99.90
10875;DHT22;5490;52.200;8.786;2023-04-22T05:51:58;12.50;99.90
10875;DHT22;5490;52.200;8.786;2023-04-22T05:54:24;12.60;99.90
10875;DHT22;5490;52.200;8.786;2023-04-22T05:56:51;12.70;99.90
10875;DHT22;5490;52.200;8.786;2023-04-22T05:59:19;12.80;99.90
10875;DHT22;5490;52.200;8.786;2023-04-22T06:01:46;12.90;99.90
10875;DHT22;5490;52.200;8.786;2023-04-22T06:04:13;13.10;99.90
10875;DHT22;5490;52.200;8.786;2023-04-22T06:06:40;13.20;99.90
10875;DHT22;5490;52.200;8.786;2023-04-22T06:09:06;13.30;99.90
10875;DHT22;5490;52.200;8.786;2023-04-22T06:11:33;13.40;99.90
10875;DHT22;5490;52.200;8.786;2023-04-22T06:14:00;13.50;99.90
10875;DHT22;5490;52.200;8.786;2023-04-22T06:16:28;13.60;99.90
10875;DHT22;5490;52.200;8.786;2023-04-22T06:18:55;13.80;99.90
10875;DHT22;5490;52.200;8.786;2023-04-22T06:21:22;13.90;99.90
10875;DHT22;5490;52.200;8.786;2023-04-22T06:23:48;14.10;99.90
10875;DHT22;5490;52.200;8.786;2023-04-22T06:26:15;14.30;99.90
10875;DHT22;5490;52.200;8.786;2023-04-22T06:28:42;14.30;99.90
10875;DHT22;5490;52.200;8.786;2023-04-22T06:31:09;14.40;99.90
10875;DHT22;5490;52.200;8.786;2023-04-22T06:33:37;14.60;99.90
10875;DHT22;5490;52.200;8.786;2023-04-22T06:36:04;14.80;99.90
10875;DHT22;5490;52.200;8.786;2023-04-22T06:38:37;14.80;99.90
10875;DHT22;5490;52.200;8.786;2023-04-22T06:41:03;15.00;99.90
10875;DHT22;5490;52.200;8.786;2023-04-22T06:43:30;15.10;99.90
10875;DHT22;5490;52.200;8.786;2023-04-22T06:45:57;15.20;99.90
10875;DHT22;5490;52.200;8.786;2023-04-22T06:48:24;15.30;99.90
10875;DHT22;5490;52.200;8.786;2023-04-22T06:50:54;15.50;99.90
10875;DHT22;5490;52.200;8.786;2023-04-22T06:53:21;15.50;99.90
10875;DHT22;5490;52.200;8.786;2023-04-22T06:55:48;15.70;99.90
10875;DHT22;5490;52.200;8.786;2023-04-22T06:58:15;15.90;99.90
10875;DHT22;5490;52.200;8.786;2023-04-22T07:00:42;16.10;99.90
10875;DHT22;5490;52.200;8.786;2023-04-22T07:03:09;16.30;99.90
10875;DHT22;5490;52.200;8.786;2023-04-22T07:05:36;16.50;99.90
10875;DHT22;5490;52.200;8.786;2023-04-22T07:08:04;16.70;99.90
10875;DHT22;5490;52.200;8.786;2023-04-22T07:10:30;16.80;99.90
10875;DHT22;5490;52.200;8.786;2023-04-22T07:12:57;16.90;99.90
10875;DHT22;5490;52.200;8.786;2023-04-22T07:15:24;17.00;99.90
10875;DHT22;5490;52.200;8.786;2023-04-22T07:17:51;17.30;99.90
10875;DHT22;5490;52.200;8.786;2023-04-22T07:20:18;17.50;99.90
10875;DHT22;5490;52.200;8.786;2023-04-22T07:22:44;17.50;99.90
10875;DHT22;5490;52.200;8.786;2023-04-22T07:25:13;17.60;99.90
10875;DHT22;5490;52.200;8.786;2023-04-22T07:27:39;17.80;99.90
10875;DHT22;5490;52.200;8.786;2023-04-22T07:30:07;18.00;99.90
10875;DHT22;5490;52.200;8.786;2023-04-22T07:32:34;18.20;99.90
10875;DHT22;5490;52.200;8.786;2023-04-22T07:35:01;18.70;99.90
10875;DHT22;5490;52.200;8.786;2023-04-22T07:37:27;19.10;99.90
10875;DHT22;5490;52.200;8.786;2023-04-22T07:39:54;19.40;99.90
10875;DHT22;5490;52.200;8.786;2023-04-22T07:42:22;19.80;99.90
10875;DHT22;5490;52.200;8.786;2023-04-22T07:44:49;20.30;99.90
10875;DHT22;5490;52.200;8.786;2023-04-22T07:47:16;20.90;99.90
10875;DHT22;5490;52.200;8.786;2023-04-22T07:49:42;21.80;99.90
10875;DHT22;5490;52.200;8.786;2023-04-22T07:52:09;22.80;99.90
10875;DHT22;5490;52.200;8.786;2023-04-22T07:54:36;23.60;99.90
10875;DHT22;5490;52.200;8.786;2023-04-22T07:57:03;24.40;99.90
10875;DHT22;5490;52.200;8.786;2023-04-22T07:59:31;25.10;99.90
10875;DHT22;5490;52.200;8.786;2023-04-22T08:01:58;25.70;98.80
10875;DHT22;5490;52.200;8.786;2023-04-22T08:04:25;26.10;97.60
10875;DHT22;5490;52.200;8.786;2023-04-22T08:06:51;26.70;95.40
10875;DHT22;5490;52.200;8.786;2023-04-22T08:09:19;27.50;94.70
10875;DHT22;5490;52.200;8.786;2023-04-22T08:11:46;27.80;92.60
10875;DHT22;5490;52.200;8.786;2023-04-22T08:14:12;28.40;92.30
10875;DHT22;5490;52.200;8.786;2023-04-22T08:16:41;28.70;90.70
10875;DHT22;5490;52.200;8.786;2023-04-22T08:19:08;29.10;90.20
10875;DHT22;5490;52.200;8.786;2023-04-22T08:21:35;29.50;86.70
10875;DHT22;5490;52.200;8.786;2023-04-22T08:24:02;29.90;85.30
10875;DHT22;5490;52.200;8.786;2023-04-22T08:26:29;30.00;83.10
10875;DHT22;5490;52.200;8.786;2023-04-22T08:28:56;30.10;82.00
10875;DHT22;5490;52.200;8.786;2023-04-22T08:31:23;30.00;81.70
10875;DHT22;5490;52.200;8.786;2023-04-22T08:33:51;29.90;80.50
10875;DHT22;5490;52.200;8.786;2023-04-22T08:36:18;30.20;81.00
10875;DHT22;5490;52.200;8.786;2023-04-22T08:38:47;30.20;77.80
10875;DHT22;5490;52.200;8.786;2023-04-22T08:41:14;29.80;79.40
10875;DHT22;5490;52.200;8.786;2023-04-22T08:43:43;29.40;79.80
10875;DHT22;5490;52.200;8.786;2023-04-22T08:46:10;28.80;78.70
10875;DHT22;5490;52.200;8.786;2023-04-22T08:48:39;28.40;80.40
10875;DHT22;5490;52.200;8.786;2023-04-22T08:51:08;28.20;82.20
10875;DHT22;5490;52.200;8.786;2023-04-22T08:53:35;28.10;82.90
10875;DHT22;5490;52.200;8.786;2023-04-22T08:56:05;28.20;83.40
10875;DHT22;5490;52.200;8.786;2023-04-22T08:58:33;28.10;81.90
10875;DHT22;5490;52.200;8.786;2023-04-22T09:01:01;27.90;80.50
10875;DHT22;5490;52.200;8.786;2023-04-22T09:03:28;27.60;81.10
10875;DHT22;5490;52.200;8.786;2023-04-22T09:06:00;27.40;81.30
10875;DHT22;5490;52.200;8.786;2023-04-22T09:08:30;27.20;81.50
10875;DHT22;5490;52.200;8.786;2023-04-22T09:10:57;27.30;83.80
10875;DHT22;5490;52.200;8.786;2023-04-22T09:13:25;27.40;83.00
10875;DHT22;5490;52.200;8.786;2023-04-22T09:15:52;27.40;84.20
10875;DHT22;5490;52.200;8.786;2023-04-22T09:18:19;27.50;82.80
10875;DHT22;5490;52.200;8.786;2023-04-22T09:20:47;27.50;82.60
10875;DHT22;5490;52.200;8.786;2023-04-22T09:23:14;27.40;82.60
10875;DHT22;5490;52.200;8.786;2023-04-22T09:25:44;27.20;83.90
10875;DHT22;5490;52.200;8.786;2023-04-22T09:28:16;27.00;84.10
10875;DHT22;5490;52.200;8.786;2023-04-22T09:30:44;26.80;83.60
10875;DHT22;5490;52.200;8.786;2023-04-22T09:33:11;26.50;83.90
10875;DHT22;5490;52.200;8.786;2023-04-22T09:35:40;26.30;85.30
10875;DHT22;5490;52.200;8.786;2023-04-22T09:38:08;25.80;84.40
10875;DHT22;5490;52.200;8.786;2023-04-22T09:40:36;25.60;85.60
10875;DHT22;5490;52.200;8.786;2023-04-22T09:43:06;25.50;85.20
10875;DHT22;5490;52.200;8.786;2023-04-22T09:45:35;25.40;85.60
10875;DHT22;5490;52.200;8.786;2023-04-22T09:48:05;25.30;85.40
10875;DHT22;5490;52.200;8.786;2023-04-22T09:50:32;25.20;86.20
10875;DHT22;5490;52.200;8.786;2023-04-22T09:53:00;25.10;86.20
10875;DHT22;5490;52.200;8.786;2023-04-22T09:55:29;25.10;85.10
10875;DHT22;5490;52.200;8.786;2023-04-22T09:57:57;25.20;86.90
10875;DHT22;5490;52.200;8.786;2023-04-22T10:00:28;25.30;86.90
10875;DHT22;5490;52.200;8.786;2023-04-22T10:02:55;25.20;88.20
10875;DHT22;5490;52.200;8.786;2023-04-22T10:05:22;25.20;86.50
10875;DHT22;5490;52.200;8.786;2023-04-22T10:07:50;25.10;83.80
10875;DHT22;5490;52.200;8.786;2023-04-22T10:10:17;25.10;86.50
10875;DHT22;5490;52.200;8.786;2023-04-22T10:12:46;25.10;88.70
10875;DHT22;5490;52.200;8.786;2023-04-22T10:15:13;25.10;86.80
10875;DHT22;5490;52.200;8.786;2023-04-22T10:17:41;24.90;87.70
10875;DHT22;5490;52.200;8.786;2023-04-22T10:20:12;24.80;89.00
10875;DHT22;5490;52.200;8.786;2023-04-22T10:22:42;24.80;89.30
10875;DHT22;5490;52.200;8.786;2023-04-22T10:25:11;24.70;88.90
10875;DHT22;5490;52.200;8.786;2023-04-22T10:27:38;24.60;87.10
10875;DHT22;5490;52.200;8.786;2023-04-22T10:30:07;24.50;88.40
10875;DHT22;5490;52.200;8.786;2023-04-22T10:32:34;24.50;88.80
10875;DHT22;5490;52.200;8.786;2023-04-22T10:35:13;24.30;88.60
10875;DHT22;5490;52.200;8.786;2023-04-22T10:37:41;24.40;90.10
10875;DHT22;5490;52.200;8.786;2023-04-22T10:40:13;24.30;87.20
10875;DHT22;5490;52.200;8.786;2023-04-22T10:42:41;24.10;86.80
10875;DHT22;5490;52.200;8.786;2023-04-22T10:45:11;24.00;87.50
10875;DHT22;5490;52.200;8.786;2023-04-22T10:47:39;23.90;86.80
10875;DHT22;5490;52.200;8.786;2023-04-22T10:50:20;23.80;88.40
10875;DHT22;5490;52.200;8.786;2023-04-22T10:52:49;23.70;89.70
10875;DHT22;5490;52.200;8.786;2023-04-22T10:55:17;23.60;90.00
10875;DHT22;5490;52.200;8.786;2023-04-22T10:57:45;23.50;90.00
10875;DHT22;5490;52.200;8.786;2023-04-22T11:00:38;23.40;90.00
10875;DHT22;5490;52.200;8.786;2023-04-22T11:03:11;23.30;90.10
10875;DHT22;5490;52.200;8.786;2023-04-22T11:05:39;23.20;90.30
10875;DHT22;5490;52.200;8.786;2023-04-22T11:08:10;23.20;90.60
10875;DHT22;5490;52.200;8.786;2023-04-22T11:10:40;23.10;90.10
10875;DHT22;5490;52.200;8.786;2023-04-22T11:13:09;23.00;90.90
10875;DHT22;5490;52.200;8.786;2023-04-22T11:15:37;23.00;90.60
10875;DHT22;5490;52.200;8.786;2023-04-22T11:18:10;23.00;91.00
10875;DHT22;5490;52.200;8.786;2023-04-22T11:20:38;23.00;91.10
10875;DHT22;5490;52.200;8.786;2023-04-22T11:23:05;23.10;91.30
10875;DHT22;5490;52.200;8.786;2023-04-22T11:25:32;23.00;91.00
10875;DHT22;5490;52.200;8.786;2023-04-22T11:27:59;23.00;91.20
10875;DHT22;5490;52.200;8.786;2023-04-22T11:30:27;23.00;91.20
10875;DHT22;5490;52.200;8.786;2023-04-22T11:32:57;23.00;91.10
10875;DHT22;5490;52.200;8.786;2023-04-22T11:35:28;23.00;90.90
10875;DHT22;5490;52.200;8.786;2023-04-22T11:37:58;22.90;90.80
10875;DHT22;5490;52.200;8.786;2023-04-22T11:40:27;22.90;90.90
10875;DHT22;5490;52.200;8.786;2023-04-22T11:42:55;22.90;91.10
10875;DHT22;5490;52.200;8.786;2023-04-22T11:45:23;22.90;91.40
10875;DHT22;5490;52.200;8.786;2023-04-22T11:47:50;22.90;91.40
10875;DHT22;5490;52.200;8.786;2023-04-22T11:50:20;23.00;92.00
10875;DHT22;5490;52.200;8.786;2023-04-22T11:52:49;23.00;91.60
10875;DHT22;5490;52.200;8.786;2023-04-22T11:55:20;23.00;92.00
10875;DHT22;5490;52.200;8.786;2023-04-22T11:57:55;23.00;91.60
10875;DHT22;5490;52.200;8.786;2023-04-22T12:00:24;22.90;91.20
10875;DHT22;5490;52.200;8.786;2023-04-22T12:02:58;22.90;90.10
10875;DHT22;5490;52.200;8.786;2023-04-22T12:05:32;22.90;90.30
10875;DHT22;5490;52.200;8.786;2023-04-22T12:08:00;22.90;90.00
10875;DHT22;5490;52.200;8.786;2023-04-22T12:10:29;22.80;90.00
10875;DHT22;5490;52.200;8.786;2023-04-22T12:12:56;22.90;90.00
10875;DHT22;5490;52.200;8.786;2023-04-22T12:15:23;22.90;90.70
10875;DHT22;5490;52.200;8.786;2023-04-22T12:17:50;22.80;90.20
10875;DHT22;5490;52.200;8.786;2023-04-22T12:20:17;22.80;90.10
10875;DHT22;5490;52.200;8.786;2023-04-22T12:22:44;22.70;88.60
10875;DHT22;5490;52.200;8.786;2023-04-22T12:25:10;22.60;89.20
10875;DHT22;5490;52.200;8.786;2023-04-22T12:27:38;22.50;87.30
10875;DHT22;5490;52.200;8.786;2023-04-22T12:30:06;22.40;88.00
10875;DHT22;5490;52.200;8.786;2023-04-22T12:32:33;22.40;89.90
10875;DHT22;5490;52.200;8.786;2023-04-22T12:35:00;22.40;90.00
10875;DHT22;5490;52.200;8.786;2023-04-22T12:37:27;22.50;89.80
10875;DHT22;5490;52.200;8.786;2023-04-22T12:39:53;22.50;90.20
10875;DHT22;5490;52.200;8.786;2023-04-22T12:42:20;22.40;90.40
10875;DHT22;5490;52.200;8.786;2023-04-22T12:44:48;22.40;90.60
10875;DHT22;5490;52.200;8.786;2023-04-22T12:47:15;22.30;90.00
10875;DHT22;5490;52.200;8.786;2023-04-22T12:49:43;22.20;90.10
10875;DHT22;5490;52.200;8.786;2023-04-22T12:52:11;22.20;90.20
10875;DHT22;5490;52.200;8.786;2023-04-22T12:54:38;22.20;90.40
10875;DHT22;5490;52.200;8.786;2023-04-22T12:57:04;22.30;90.60
10875;DHT22;5490;52.200;8.786;2023-04-22T12:59:31;22.30;90.10
10875;DHT22;5490;52.200;8.786;2023-04-22T13:01:59;22.30;90.00
10875;DHT22;5490;52.200;8.786;2023-04-22T13:04:26;22.30;89.00
10875;DHT22;5490;52.200;8.786;2023-04-22T13:06:53;22.30;89.20
10875;DHT22;5490;52.200;8.786;2023-04-22T13:09:25;22.30;90.00
10875;DHT22;5490;52.200;8.786;2023-04-22T13:11:52;22.30;88.90
10875;DHT22;5490;52.200;8.786;2023-04-22T13:14:20;22.30;89.00
10875;DHT22;5490;52.200;8.786;2023-04-22T13:16:46;22.20;88.10
10875;DHT22;5490;52.200;8.786;2023-04-22T13:19:14;22.20;88.70
10875;DHT22;5490;52.200;8.786;2023-04-22T13:21:41;22.10;88.60
10875;DHT22;5490;52.200;8.786;2023-04-22T13:24:09;22.10;88.50
10875;DHT22;5490;52.200;8.786;2023-04-22T13:26:36;22.00;89.00
10875;DHT22;5490;52.200;8.786;2023-04-22T13:29:04;21.90;88.60
10875;DHT22;5490;52.200;8.786;2023-04-22T13:31:36;21.90;88.80
10875;DHT22;5490;52.200;8.786;2023-04-22T13:34:02;21.80;89.20
10875;DHT22;5490;52.200;8.786;2023-04-22T13:36:31;21.80;89.70
10875;DHT22;5490;52.200;8.786;2023-04-22T13:38:58;21.80;89.10
10875;DHT22;5490;52.200;8.786;2023-04-22T13:41:25;21.70;88.90
10875;DHT22;5490;52.200;8.786;2023-04-22T13:43:52;21.70;89.50
10875;DHT22;5490;52.200;8.786;2023-04-22T13:46:20;21.70;88.70
10875;DHT22;5490;52.200;8.786;2023-04-22T13:48:47;21.70;89.00
10875;DHT22;5490;52.200;8.786;2023-04-22T13:51:14;21.80;88.80
10875;DHT22;5490;52.200;8.786;2023-04-22T13:53:42;21.80;89.80
10875;DHT22;5490;52.200;8.786;2023-04-22T13:56:09;21.80;90.20
10875;DHT22;5490;52.200;8.786;2023-04-22T13:58:37;21.90;90.10
10875;DHT22;5490;52.200;8.786;2023-04-22T14:01:05;22.00;89.80
10875;DHT22;5490;52.200;8.786;2023-04-22T14:03:32;22.10;88.70
10875;DHT22;5490;52.200;8.786;2023-04-22T14:05:59;22.20;88.40
10875;DHT22;5490;52.200;8.786;2023-04-22T14:08:26;22.30;87.30
10875;DHT22;5490;52.200;8.786;2023-04-22T14:10:54;22.30;85.90
10875;DHT22;5490;52.200;8.786;2023-04-22T14:13:21;22.40;87.90
10875;DHT22;5490;52.200;8.786;2023-04-22T14:15:48;22.30;86.90
10875;DHT22;5490;52.200;8.786;2023-04-22T14:18:15;22.30;86.50
10875;DHT22;5490;52.200;8.786;2023-04-22T14:20:42;22.30;88.00
10875;DHT22;5490;52.200;8.786;2023-04-22T14:23:09;22.20;88.60
10875;DHT22;5490;52.200;8.786;2023-04-22T14:25:36;22.30;88.20
10875;DHT22;5490;52.200;8.786;2023-04-22T14:28:04;22.20;89.00
10875;DHT22;5490;52.200;8.786;2023-04-22T14:30:31;22.20;89.70
10875;DHT22;5490;52.200;8.786;2023-04-22T14:32:58;22.20;89.00
10875;DHT22;5490;52.200;8.786;2023-04-22T14:35:25;22.20;89.20
10875;DHT22;5490;52.200;8.786;2023-04-22T14:37:52;22.20;89.20
10875;DHT22;5490;52.200;8.786;2023-04-22T14:40:19;22.30;89.40
10875;DHT22;5490;52.200;8.786;2023-04-22T14:42:47;22.30;88.80
10875;DHT22;5490;52.200;8.786;2023-04-22T14:45:15;22.30;86.20
10875;DHT22;5490;52.200;8.786;2023-04-22T14:47:43;22.20;87.10
10875;DHT22;5490;52.200;8.786;2023-04-22T14:50:14;22.30;88.00
10875;DHT22;5490;52.200;8.786;2023-04-22T14:52:43;22.20;88.30
10875;DHT22;5490;52.200;8.786;2023-04-22T14:55:10;22.10;88.90
10875;DHT22;5490;52.200;8.786;2023-04-22T14:57:37;21.90;88.30
10875;DHT22;5490;52.200;8.786;2023-04-22T15:00:05;21.90;89.20
10875;DHT22;5490;52.200;8.786;2023-04-22T15:02:34;21.70;89.40
10875;DHT22;5490;52.200;8.786;2023-04-22T15:05:01;21.60;89.60
10875;DHT22;5490;52.200;8.786;2023-04-22T15:07:28;21.50;89.90
10875;DHT22;5490;52.200;8.786;2023-04-22T15:09:55;21.50;90.50
10875;DHT22;5490;52.200;8.786;2023-04-22T15:12:23;21.40;90.50
10875;DHT22;5490;52.200;8.786;2023-04-22T15:14:50;21.30;90.00
10875;DHT22;5490;52.200;8.786;2023-04-22T15:17:17;21.20;90.20
10875;DHT22;5490;52.200;8.786;2023-04-22T15:19:46;21.20;90.70
10875;DHT22;5490;52.200;8.786;2023-04-22T15:22:12;21.10;90.60
10875;DHT22;5490;52.200;8.786;2023-04-22T15:24:39;21.10;91.40
10875;DHT22;5490;52.200;8.786;2023-04-22T15:27:06;21.10;91.80
10875;DHT22;5490;52.200;8.786;2023-04-22T15:29:33;21.10;91.20
10875;DHT22;5490;52.200;8.786;2023-04-22T15:32:00;21.10;91.00
10875;DHT22;5490;52.200;8.786;2023-04-22T15:34:28;21.20;91.10
10875;DHT22;5490;52.200;8.786;2023-04-22T15:36:56;21.20;90.80
10875;DHT22;5490;52.200;8.786;2023-04-22T15:39:23;21.20;90.70
10875;DHT22;5490;52.200;8.786;2023-04-22T15:41:50;21.20;90.80
10875;DHT22;5490;52.200;8.786;2023-04-22T15:44:17;21.30;90.70
10875;DHT22;5490;52.200;8.786;2023-04-22T15:46:44;21.30;90.90